Time;durP1;ratioP1;P1;durP2;ratioP2;P2;SDS_P1;SDS_P2;PMS_P1;PMS_P2;Temp;Humidity;BMP_temperature;BMP_pressure;BME280_temperature;BME280_humidity;BME280_pressure;Samples;Min_cycle;Max_cycle;Signal;HPM_P1;HPM_P2
2022/12/23 00:01:04;;;;;;;3.97;1.90;;;13.60;70.90;;;;;;4905720;29;20481;-86
2022/12/23 00:03:32;;;;;;;7.20;2.60;;;13.80;70.30;;;;;;4872634;29;20464;-86
2022/12/23 00:06:00;;;;;;;5.03;2.03;;;13.80;70.10;;;;;;4905451;29;20479;-85
2022/12/23 00:08:27;;;;;;;5.00;1.90;;;13.60;70.60;;;;;;4934027;28;20472;-85
2022/12/23 00:10:57;;;;;;;6.70;2.57;;;13.70;70.60;;;;;;4918025;29;20460;-86
2022/12/23 00:16:10;;;;;;;3.70;1.87;;;13.80;70.00;;;;;;4891413;29;20611;-86
2022/12/23 00:18:38;;;;;;;2.90;1.73;;;13.50;70.80;;;;;;4917004;29;20494;-85
2022/12/23 00:21:08;;;;;;;4.00;1.57;;;13.70;70.40;;;;;;4905553;29;20461;-85
2022/12/23 00:23:36;;;;;;;6.40;3.27;;;13.80;70.10;;;;;;4905549;29;20463;-85
2022/12/23 00:26:05;;;;;;;4.10;1.87;;;13.90;69.60;;;;;;4906103;29;20472;-86
2022/12/23 00:28:32;;;;;;;2.63;1.50;;;14.00;69.20;;;;;;4888916;29;20464;-84
2022/12/23 00:31:01;;;;;;;2.20;1.63;;;14.00;69.10;;;;;;4894265;29;20443;-83
2022/12/23 00:33:31;;;;;;;4.27;1.50;;;14.00;69.00;;;;;;4918191;29;21232;-85
2022/12/23 00:35:58;;;;;;;4.70;1.87;;;13.80;69.40;;;;;;4894884;29;20493;-85
2022/12/23 00:43:56;;;;;;;3.00;1.57;;;13.90;69.40;;;;;;4895431;29;20463;-83
2022/12/23 00:46:23;;;;;;;1.37;1.20;;;13.50;70.80;;;;;;4934186;29;20832;-87
2022/12/23 00:51:34;;;;;;;6.07;1.83;;;13.40;70.90;;;;;;4898368;29;20802;-85
2022/12/23 00:54:02;;;;;;;8.27;1.87;;;13.60;70.80;;;;;;4909196;29;20451;-86
2022/12/23 00:56:30;;;;;;;3.57;1.40;;;13.60;70.90;;;;;;4903887;29;20443;-85
2022/12/23 00:58:57;;;;;;;10.10;1.87;;;13.80;70.20;;;;;;4905635;29;20506;-85
2022/12/23 01:07:10;;;;;;;1.53;1.43;;;14.00;69.00;;;;;;4836568;29;21310;-87
2022/12/23 01:09:37;;;;;;;8.93;2.00;;;14.10;69.00;;;;;;4839453;29;20860;-85
2022/12/23 01:12:05;;;;;;;11.10;1.80;;;14.20;68.90;;;;;;4847294;29;20965;-88
2022/12/23 01:14:33;;;;;;;2.43;1.50;;;14.10;69.00;;;;;;4873045;29;21162;-86
2022/12/23 01:17:00;;;;;;;6.80;3.40;;;14.20;68.70;;;;;;4922539;29;21147;-86
2022/12/23 01:19:28;;;;;;;3.00;1.90;;;14.10;68.70;;;;;;4910000;29;20478;-86
2022/12/23 01:21:55;;;;;;;5.33;3.20;;;14.20;68.60;;;;;;4920428;29;20806;-86
2022/12/23 01:24:21;;;;;;;5.97;1.77;;;14.30;68.40;;;;;;4906453;29;21284;-86
2022/12/23 01:26:48;;;;;;;4.13;2.37;;;14.30;68.30;;;;;;4890507;29;20505;-88
2022/12/23 01:29:17;;;;;;;4.37;1.87;;;14.20;68.60;;;;;;4917477;29;20459;-86
2022/12/23 01:31:44;;;;;;;4.73;1.97;;;14.30;68.60;;;;;;4908324;29;20452;-85
2022/12/23 01:34:10;;;;;;;3.27;1.90;;;14.40;68.20;;;;;;4909855;29;20472;-86
2022/12/23 01:36:37;;;;;;;8.60;3.30;;;14.40;67.60;;;;;;4866630;29;20470;-86
2022/12/23 01:39:04;;;;;;;3.40;3.10;;;14.30;68.00;;;;;;4923342;29;20455;-85
2022/12/23 01:44:49;;;;;;;3.13;2.93;;;14.40;67.30;;;;;;4921946;29;20517;-88
2022/12/23 01:47:21;;;;;;;1.80;1.70;;;14.40;67.00;;;;;;4938822;28;20485;-86
2022/12/23 01:49:49;;;;;;;3.27;2.00;;;14.40;66.90;;;;;;4918161;29;20448;-86
2022/12/23 01:52:17;;;;;;;1.67;1.37;;;14.20;68.10;;;;;;4892621;29;20459;-86
2022/12/23 01:54:45;;;;;;;4.10;2.00;;;14.20;67.80;;;;;;4906992;29;20538;-86
2022/12/23 01:57:12;;;;;;;3.93;1.87;;;14.30;67.60;;;;;;4936636;29;20448;-87
2022/12/23 02:05:14;;;;;;;3.40;1.77;;;14.40;66.40;;;;;;4921888;29;20472;-85
2022/12/23 02:10:35;;;;;;;2.10;1.90;;;14.50;66.10;;;;;;4897308;29;20446;-86
2022/12/23 02:13:07;;;;;;;5.33;2.30;;;14.50;65.90;;;;;;4906425;29;20447;-85
2022/12/23 02:18:48;;;;;;;5.10;2.83;;;14.50;66.10;;;;;;4907703;29;20505;-86
2022/12/23 02:21:27;;;;;;;2.63;2.30;;;14.50;65.90;;;;;;4888322;29;20463;-87
2022/12/23 02:24:28;;;;;;;2.07;1.87;;;14.40;66.20;;;;;;4908963;29;20475;-85
2022/12/23 02:27:18;;;;;;;2.70;2.10;;;14.50;66.30;;;;;;4897700;29;20850;-86
2022/12/23 02:30:23;;;;;;;1.80;1.67;;;14.50;66.20;;;;;;4893132;29;20546;-85
2022/12/23 02:33:11;;;;;;;2.63;2.00;;;14.50;65.90;;;;;;4891138;29;21421;-85
2022/12/23 02:35:44;;;;;;;4.23;1.40;;;14.50;65.90;;;;;;4935712;28;20466;-86
2022/12/23 02:38:15;;;;;;;2.77;1.70;;;14.50;65.50;;;;;;4909243;29;20471;-84
2022/12/23 02:40:55;;;;;;;2.20;1.57;;;14.40;65.30;;;;;;4879551;29;20995;-85
2022/12/23 02:43:29;;;;;;;2.90;2.30;;;14.40;65.30;;;;;;4923497;29;20447;-87
2022/12/23 02:46:04;;;;;;;5.67;2.80;;;14.40;65.30;;;;;;4885895;29;20559;-86
2022/12/23 02:48:38;;;;;;;3.80;3.20;;;14.50;65.30;;;;;;4887029;29;20824;-87
2022/12/23 02:51:07;;;;;;;8.90;4.13;;;14.50;65.40;;;;;;4905170;29;20456;-85
2022/12/23 02:53:37;;;;;;;11.33;6.23;;;14.50;65.40;;;;;;4919159;29;20444;-85
2022/12/23 02:56:07;;;;;;;16.53;7.07;;;14.50;65.40;;;;;;4907778;29;20507;-86
2022/12/23 02:58:41;;;;;;;9.47;4.93;;;14.50;65.50;;;;;;4893721;29;20459;-84
2022/12/23 03:01:10;;;;;;;10.20;5.67;;;14.40;65.30;;;;;;4898229;29;20455;-85
2022/12/23 03:03:39;;;;;;;10.00;4.33;;;14.40;65.60;;;;;;4894271;29;20960;-85
2022/12/23 03:06:16;;;;;;;6.90;3.73;;;14.40;65.50;;;;;;4894220;29;20479;-85
2022/12/23 03:08:44;;;;;;;7.43;4.70;;;14.40;65.60;;;;;;4904470;29;20475;-85
2022/12/23 03:11:14;;;;;;;8.43;4.70;;;14.40;65.40;;;;;;4905349;29;20455;-85
2022/12/23 03:14:08;;;;;;;6.33;3.63;;;14.40;65.60;;;;;;4911239;29;20582;-86
2022/12/23 03:16:48;;;;;;;7.20;4.17;;;14.40;65.90;;;;;;4920370;29;20463;-86
2022/12/23 03:19:24;;;;;;;5.13;3.73;;;14.40;66.10;;;;;;4933301;29;20713;-86
2022/12/23 03:21:59;;;;;;;6.57;4.23;;;14.40;65.70;;;;;;4908772;29;20447;-85
2022/12/23 03:24:34;;;;;;;5.30;4.10;;;14.40;65.60;;;;;;4906244;29;21973;-85
2022/12/23 03:27:08;;;;;;;7.33;3.93;;;14.20;66.00;;;;;;4914686;29;20460;-85
2022/12/23 03:29:41;;;;;;;10.70;3.50;;;14.20;66.20;;;;;;4923144;29;20459;-87
2022/12/23 03:32:11;;;;;;;6.27;3.63;;;14.20;66.20;;;;;;4904716;29;20462;-83
2022/12/23 03:34:43;;;;;;;11.27;3.70;;;14.10;66.70;;;;;;4878832;29;20484;-86
2022/12/23 03:37:12;;;;;;;8.70;3.13;;;14.10;66.40;;;;;;4872178;29;20443;-85
2022/12/23 03:39:45;;;;;;;3.60;2.13;;;14.00;66.90;;;;;;4912326;29;20447;-86
2022/12/23 03:42:19;;;;;;;10.27;3.30;;;14.00;66.70;;;;;;4934695;29;20500;-85
2022/12/23 03:44:49;;;;;;;3.90;2.60;;;14.00;67.10;;;;;;4895368;29;20485;-86
2022/12/23 03:47:20;;;;;;;15.10;3.00;;;14.00;67.30;;;;;;4921717;29;20457;-86
2022/12/23 03:49:52;;;;;;;5.17;2.63;;;13.90;67.50;;;;;;4914467;29;20459;-85
2022/12/23 03:52:24;;;;;;;4.40;2.60;;;13.90;68.00;;;;;;4905421;29;20451;-86
2022/12/23 03:54:53;;;;;;;7.30;2.77;;;13.90;68.20;;;;;;4924969;29;20474;-86
2022/12/23 03:57:22;;;;;;;3.40;3.03;;;13.90;68.50;;;;;;4903184;29;20450;-86
2022/12/23 03:59:50;;;;;;;6.40;3.53;;;13.60;69.50;;;;;;4915848;29;20448;-85
2022/12/23 04:02:24;;;;;;;16.87;3.70;;;13.50;69.40;;;;;;4911617;29;20543;-86
2022/12/23 04:05:04;;;;;;;10.43;3.27;;;13.70;68.60;;;;;;4917140;29;20480;-85
2022/12/23 04:07:34;;;;;;;3.60;1.90;;;13.70;68.50;;;;;;4917860;29;20463;-85
2022/12/23 04:10:01;;;;;;;3.93;1.70;;;13.70;69.10;;;;;;4871949;29;20448;-85
2022/12/23 04:12:30;;;;;;;3.80;1.73;;;13.60;69.40;;;;;;4934468;28;20459;-87
2022/12/23 04:14:57;;;;;;;4.83;2.20;;;13.60;69.70;;;;;;4925683;29;20470;-86
2022/12/23 04:17:24;;;;;;;3.10;2.40;;;13.70;69.30;;;;;;4924862;29;20474;-85
2022/12/23 04:19:53;;;;;;;19.70;4.33;;;13.80;69.00;;;;;;4876614;29;20459;-86
2022/12/23 04:22:20;;;;;;;5.10;2.87;;;13.80;68.40;;;;;;4917140;29;20478;-85
2022/12/23 04:24:47;;;;;;;4.53;3.73;;;13.80;68.60;;;;;;4921121;29;20485;-85
2022/12/23 04:27:16;;;;;;;3.27;2.70;;;13.90;68.00;;;;;;4918264;29;20919;-84
2022/12/23 04:29:44;;;;;;;5.87;3.40;;;14.00;67.60;;;;;;4893074;29;20466;-87
2022/12/23 04:32:11;;;;;;;4.50;2.87;;;14.00;67.10;;;;;;4897353;29;20451;-86
2022/12/23 04:34:38;;;;;;;5.53;3.47;;;14.00;67.20;;;;;;4893371;29;20474;-86
2022/12/23 04:37:06;;;;;;;4.07;3.33;;;14.10;67.30;;;;;;4878307;29;20455;-84
2022/12/23 04:39:33;;;;;;;4.10;3.50;;;14.10;67.20;;;;;;4931727;29;20446;-85
2022/12/23 04:42:00;;;;;;;4.43;3.03;;;14.10;67.20;;;;;;4916111;29;20467;-86
2022/12/23 04:44:27;;;;;;;5.70;3.70;;;14.00;67.80;;;;;;4917160;29;20478;-85
2022/12/23 04:46:54;;;;;;;17.83;5.10;;;13.90;67.90;;;;;;4907251;29;21032;-85
2022/12/23 04:49:21;;;;;;;42.03;5.97;;;14.00;67.70;;;;;;4905500;29;20478;-86
2022/12/23 04:51:48;;;;;;;5.30;3.83;;;14.10;67.50;;;;;;4904864;29;20818;-83
2022/12/23 04:54:16;;;;;;;9.90;4.40;;;14.00;67.60;;;;;;4881364;29;20464;-87
2022/12/23 04:56:43;;;;;;;7.30;3.00;;;13.80;68.00;;;;;;4872021;29;20463;-85
2022/12/23 04:59:11;;;;;;;4.47;3.37;;;13.80;68.60;;;;;;4933500;29;20448;-86
2022/12/23 05:01:38;;;;;;;46.07;6.63;;;13.80;68.10;;;;;;4885821;29;20458;-85
2022/12/23 05:04:05;;;;;;;21.17;8.13;;;13.80;68.00;;;;;;4903927;29;20450;-86
2022/12/23 05:06:32;;;;;;;6.63;3.70;;;13.90;67.60;;;;;;4892910;29;20439;-86
2022/12/23 05:08:59;;;;;;;3.40;3.07;;;13.80;67.60;;;;;;4883948;29;21012;-86
2022/12/23 05:11:27;;;;;;;3.90;2.77;;;13.60;68.60;;;;;;4885612;29;20831;-86
2022/12/23 05:13:54;;;;;;;4.50;3.53;;;13.60;68.70;;;;;;4932342;28;20457;-85
2022/12/23 05:16:21;;;;;;;9.87;5.03;;;13.60;68.90;;;;;;4893674;29;20455;-86
2022/12/23 05:18:48;;;;;;;8.40;7.27;;;13.60;69.20;;;;;;4896459;29;21087;-83
2022/12/23 05:21:15;;;;;;;12.03;7.07;;;13.60;69.20;;;;;;4897338;29;20998;-84
2022/12/23 05:23:42;;;;;;;18.30;13.43;;;13.60;69.10;;;;;;4912536;29;20538;-85
2022/12/23 05:26:10;;;;;;;2.93;2.50;;;13.60;69.30;;;;;;4884896;29;20537;-85
2022/12/23 05:28:38;;;;;;;6.07;5.47;;;13.50;69.50;;;;;;4891778;29;20486;-84
2022/12/23 05:31:07;;;;;;;4.50;4.00;;;13.60;70.50;;;;;;4915305;29;20459;-86
2022/12/23 05:33:34;;;;;;;6.20;5.70;;;13.70;70.60;;;;;;4901491;29;21004;-83
2022/12/23 05:36:01;;;;;;;8.80;6.80;;;13.70;70.60;;;;;;4905715;29;20476;-88
2022/12/23 05:38:28;;;;;;;3.77;3.43;;;13.80;70.60;;;;;;4899895;29;20484;-83
2022/12/23 05:40:55;;;;;;;8.10;7.13;;;13.70;71.20;;;;;;4901807;29;21333;-85
2022/12/23 05:43:23;;;;;;;3.33;3.03;;;13.60;71.30;;;;;;4887014;29;20443;-85
2022/12/23 05:45:51;;;;;;;4.90;4.50;;;13.70;71.90;;;;;;4912869;29;20866;-85
2022/12/23 05:48:18;;;;;;;4.83;2.60;;;13.70;72.10;;;;;;4904396;29;20476;-86
2022/12/23 05:50:48;;;;;;;24.87;9.53;;;13.80;71.50;;;;;;4881108;29;20839;-83
2022/12/23 05:53:15;;;;;;;16.30;10.00;;;13.80;71.10;;;;;;4930609;28;20448;-84
2022/12/23 05:55:42;;;;;;;19.27;10.97;;;13.80;70.70;;;;;;4904960;29;21029;-87
2022/12/23 05:58:09;;;;;;;11.63;8.13;;;13.90;70.50;;;;;;4896636;29;20442;-85
2022/12/23 06:00:36;;;;;;;11.00;9.37;;;13.60;70.60;;;;;;4880969;29;20459;-83
2022/12/23 06:03:04;;;;;;;13.60;12.00;;;13.60;70.30;;;;;;4901981;29;21018;-85
2022/12/23 06:05:31;;;;;;;21.03;16.00;;;13.70;70.50;;;;;;4888706;29;20487;-85
2022/12/23 06:07:58;;;;;;;27.03;20.30;;;13.60;71.10;;;;;;4898908;29;20459;-86
2022/12/23 06:10:25;;;;;;;32.60;23.27;;;13.80;70.40;;;;;;4920288;29;20460;-84
2022/12/23 06:12:52;;;;;;;22.27;15.43;;;13.80;69.80;;;;;;4905404;29;20477;-84
2022/12/23 06:15:19;;;;;;;4.23;3.83;;;14.00;70.00;;;;;;4913469;29;20947;-84
2022/12/23 06:17:47;;;;;;;6.33;5.10;;;14.00;69.40;;;;;;4899094;29;20458;-85
2022/12/23 06:20:15;;;;;;;2.37;2.00;;;14.10;69.30;;;;;;4920143;29;20463;-84
2022/12/23 06:22:42;;;;;;;2.70;2.50;;;14.20;68.90;;;;;;4899047;29;20451;-85
2022/12/23 06:25:09;;;;;;;2.10;2.00;;;14.20;68.50;;;;;;4890876;29;20480;-86
2022/12/23 06:27:36;;;;;;;4.53;2.87;;;14.10;68.90;;;;;;4866246;29;20464;-84
2022/12/23 06:30:04;;;;;;;2.23;2.10;;;14.20;68.70;;;;;;4889631;29;20470;-85
2022/12/23 06:32:31;;;;;;;2.60;2.40;;;14.20;68.40;;;;;;4906073;29;21915;-85
2022/12/23 06:34:57;;;;;;;4.50;4.10;;;14.30;68.30;;;;;;4884890;29;20473;-86
2022/12/23 06:37:26;;;;;;;1.97;1.87;;;14.10;68.60;;;;;;4867080;29;20455;-85
2022/12/23 06:39:53;;;;;;;2.83;2.60;;;14.20;68.70;;;;;;4877958;29;21197;-85
2022/12/23 06:42:20;;;;;;;2.70;2.50;;;14.20;68.40;;;;;;4877532;29;20451;-85
2022/12/23 06:44:46;;;;;;;1.90;1.73;;;14.10;68.50;;;;;;4921605;29;21256;-82
2022/12/23 06:47:13;;;;;;;3.07;2.40;;;14.10;69.40;;;;;;4917924;29;20471;-85
2022/12/23 06:49:40;;;;;;;2.23;2.03;;;14.00;68.70;;;;;;4914665;29;20467;-85
2022/12/23 06:52:07;;;;;;;1.77;1.10;;;14.10;68.50;;;;;;4913382;29;20475;-85
2022/12/23 06:54:36;;;;;;;0.80;0.80;;;13.90;68.60;;;;;;4871058;29;20481;-86
2022/12/23 06:57:03;;;;;;;3.97;1.00;;;13.70;69.10;;;;;;4922149;29;20463;-85
2022/12/23 06:59:30;;;;;;;1.40;1.00;;;13.60;69.80;;;;;;4897275;29;20447;-84
2022/12/23 07:01:57;;;;;;;1.10;1.00;;;13.60;69.90;;;;;;4897826;29;21167;-84
2022/12/23 07:04:24;;;;;;;1.60;1.20;;;13.80;69.60;;;;;;4891945;29;20486;-85
2022/12/23 07:06:51;;;;;;;2.30;1.20;;;13.70;69.70;;;;;;4898870;29;20462;-85
2022/12/23 07:09:18;;;;;;;2.80;2.47;;;13.70;70.00;;;;;;4886367;29;20478;-84
2022/12/23 07:11:46;;;;;;;2.30;2.10;;;13.90;69.40;;;;;;4884538;29;20459;-88
2022/12/23 07:14:13;;;;;;;3.03;2.73;;;13.90;69.30;;;;;;4904531;29;20480;-85
2022/12/23 07:16:40;;;;;;;2.80;1.93;;;14.00;68.80;;;;;;4917006;29;20463;-84
2022/12/23 07:19:07;;;;;;;2.03;1.80;;;14.10;68.60;;;;;;4910031;29;20982;-87
2022/12/23 07:21:35;;;;;;;2.10;1.93;;;14.20;68.30;;;;;;4916430;29;20447;-84
2022/12/23 07:24:02;;;;;;;2.40;2.00;;;14.30;68.00;;;;;;4910687;29;20458;-85
2022/12/23 07:26:29;;;;;;;1.57;1.47;;;14.40;67.80;;;;;;4892932;29;20474;-83
2022/12/23 07:28:57;;;;;;;1.00;0.90;;;14.30;67.60;;;;;;4922566;29;20486;-83
2022/12/23 07:31:24;;;;;;;1.00;0.90;;;14.20;68.10;;;;;;4916614;29;20470;-86
2022/12/23 07:33:51;;;;;;;1.13;0.90;;;14.10;68.40;;;;;;4900973;29;20451;-83
2022/12/23 07:36:18;;;;;;;3.20;1.70;;;14.10;68.50;;;;;;4896802;29;20480;-85
2022/12/23 07:38:48;;;;;;;1.67;1.57;;;13.80;69.00;;;;;;4915508;29;20483;-84
2022/12/23 07:41:15;;;;;;;2.50;1.27;;;13.80;69.60;;;;;;4917241;29;20466;-83
2022/12/23 07:43:42;;;;;;;1.20;1.10;;;13.60;70.30;;;;;;4876144;29;20471;-85
2022/12/23 07:46:10;;;;;;;1.10;1.00;;;13.60;70.40;;;;;;4902199;29;20476;-84
2022/12/23 07:48:39;;;;;;;1.20;1.10;;;13.60;71.00;;;;;;4891948;29;20463;-85
2022/12/23 07:51:06;;;;;;;2.40;1.20;;;13.70;70.60;;;;;;4900869;29;20447;-83
2022/12/23 07:53:33;;;;;;;2.30;2.20;;;13.80;70.10;;;;;;4901909;29;20455;-85
2022/12/23 07:56:00;;;;;;;1.23;1.07;;;13.80;70.00;;;;;;4914876;29;20484;-84
2022/12/23 07:58:27;;;;;;;1.97;1.30;;;13.70;70.70;;;;;;4929718;28;20868;-86
2022/12/23 08:01:00;;;;;;;1.10;1.00;;;13.70;71.00;;;;;;4888901;29;20451;-83
2022/12/23 08:03:28;;;;;;;3.13;2.83;;;13.80;71.10;;;;;;4907121;29;20518;-85
2022/12/23 08:06:04;;;;;;;3.70;3.07;;;14.00;70.10;;;;;;4893529;29;20471;-84
2022/12/23 08:08:31;;;;;;;12.77;9.20;;;14.20;69.60;;;;;;4900201;29;20558;-85
2022/12/23 08:11:00;;;;;;;12.37;9.20;;;14.30;69.00;;;;;;4872810;29;20499;-84
2022/12/23 08:13:27;;;;;;;13.50;8.73;;;14.40;68.50;;;;;;4919662;29;20447;-86
2022/12/23 08:15:56;;;;;;;14.97;9.07;;;14.50;68.20;;;;;;4893483;29;20471;-85
2022/12/23 08:18:23;;;;;;;11.20;9.00;;;14.50;67.90;;;;;;4870591;29;20467;-81
2022/12/23 08:20:55;;;;;;;16.83;12.73;;;14.50;67.90;;;;;;4876884;29;20448;-84
2022/12/23 08:23:23;;;;;;;15.40;8.73;;;14.50;67.60;;;;;;4913763;29;20455;-85
2022/12/23 08:25:57;;;;;;;11.40;6.97;;;14.60;67.90;;;;;;4914660;29;20543;-85
2022/12/23 08:28:24;;;;;;;5.30;4.90;;;14.60;67.80;;;;;;4896208;29;20544;-83
2022/12/23 08:30:51;;;;;;;4.70;4.23;;;14.70;67.50;;;;;;4912414;29;20480;-83
2022/12/23 08:33:18;;;;;;;5.27;4.77;;;14.60;67.30;;;;;;4896978;29;20452;-85
2022/12/23 08:35:45;;;;;;;3.80;3.40;;;14.60;67.80;;;;;;4930963;28;20478;-84
2022/12/23 08:38:13;;;;;;;7.70;6.03;;;14.70;67.60;;;;;;4897652;29;20460;-84
2022/12/23 08:40:40;;;;;;;13.57;9.50;;;14.70;67.40;;;;;;4909424;29;20463;-84
2022/12/23 08:43:08;;;;;;;20.87;18.60;;;14.80;67.30;;;;;;4882523;29;20459;-82
2022/12/23 08:45:37;;;;;;;19.40;11.70;;;14.90;67.10;;;;;;4912571;29;20471;-84
2022/12/23 08:48:04;;;;;;;19.57;17.17;;;14.70;67.50;;;;;;4899677;29;20462;-85
2022/12/23 08:50:31;;;;;;;17.43;15.43;;;14.70;68.10;;;;;;4871152;29;20479;-83
2022/12/23 08:52:58;;;;;;;29.63;18.77;;;14.40;68.10;;;;;;4914663;29;20464;-85
2022/12/23 08:55:26;;;;;;;28.03;18.80;;;14.40;68.20;;;;;;4897643;29;20490;-85
2022/12/23 08:57:53;;;;;;;19.30;16.23;;;14.40;67.50;;;;;;4911120;29;20550;-83
2022/12/23 09:00:21;;;;;;;10.30;8.90;;;14.50;67.60;;;;;;4901733;29;21143;-85
2022/12/23 09:02:48;;;;;;;19.50;13.13;;;14.40;67.90;;;;;;4890127;29;21144;-84
2022/12/23 09:05:15;;;;;;;14.47;12.80;;;14.40;68.30;;;;;;4898601;29;20486;-83
2022/12/23 09:07:41;;;;;;;16.67;12.40;;;14.30;68.40;;;;;;4880944;29;20550;-84
2022/12/23 09:10:09;;;;;;;40.30;25.10;;;14.20;69.20;;;;;;4929628;28;20486;-84
2022/12/23 09:12:37;;;;;;;25.60;17.60;;;14.30;68.70;;;;;;4912876;29;20460;-85
2022/12/23 09:15:05;;;;;;;19.53;13.10;;;14.50;68.20;;;;;;4869212;29;20487;-85
2022/12/23 09:17:35;;;;;;;17.50;14.37;;;14.40;67.80;;;;;;4902223;29;20451;-84
2022/12/23 09:20:02;;;;;;;17.57;11.93;;;14.10;69.60;;;;;;4904741;29;20704;-85
2022/12/23 09:22:29;;;;;;;14.63;10.63;;;14.00;70.10;;;;;;4912621;29;20461;-84
2022/12/23 09:24:56;;;;;;;39.03;27.60;;;13.90;71.20;;;;;;4928926;29;20467;-85
2022/12/23 09:27:23;;;;;;;39.37;28.30;;;14.10;70.50;;;;;;4905287;29;20448;-82
2022/12/23 09:29:52;;;;;;;42.20;31.57;;;14.30;70.30;;;;;;4866976;29;20698;-85
2022/12/23 09:32:19;;;;;;;78.17;42.80;;;14.40;69.50;;;;;;4919739;29;20451;-85
2022/12/23 09:34:45;;;;;;;83.23;42.53;;;14.40;69.50;;;;;;4883037;29;20479;-85
2022/12/23 09:37:15;;;;;;;27.00;20.30;;;14.50;69.10;;;;;;4908554;29;20827;-86
2022/12/23 09:39:42;;;;;;;30.90;22.00;;;14.60;68.90;;;;;;4924862;28;20615;-85
2022/12/23 09:42:23;;;;;;;36.90;23.93;;;14.60;69.20;;;;;;4902426;29;20562;-84
2022/12/23 09:45:05;;;;;;;38.43;23.00;;;14.70;68.80;;;;;;4864215;29;20475;-85
2022/12/23 09:47:33;;;;;;;99.73;39.17;;;14.70;68.60;;;;;;4895926;29;20460;-85
2022/12/23 09:50:03;;;;;;;41.93;24.10;;;14.70;69.00;;;;;;4894968;29;20479;-84
2022/12/23 09:52:37;;;;;;;70.33;31.90;;;14.70;68.80;;;;;;4877461;29;20485;-85
2022/12/23 09:55:06;;;;;;;53.47;27.13;;;14.70;69.20;;;;;;4912444;29;21004;-86
2022/12/23 09:57:41;;;;;;;31.77;20.10;;;14.80;68.90;;;;;;4901229;29;20834;-85
2022/12/23 10:00:14;;;;;;;31.33;21.23;;;14.70;69.00;;;;;;4893863;29;20459;-84
2022/12/23 10:02:55;;;;;;;23.83;16.43;;;14.70;69.20;;;;;;4892472;29;20463;-87
2022/12/23 10:05:34;;;;;;;14.73;10.77;;;14.80;69.20;;;;;;4900076;29;20482;-85
2022/12/23 10:08:08;;;;;;;5.70;4.40;;;14.70;69.00;;;;;;4929286;28;20455;-85
2022/12/23 10:10:39;;;;;;;15.33;9.60;;;14.70;69.30;;;;;;4897017;29;20483;-87
2022/12/23 10:13:11;;;;;;;16.40;10.83;;;14.60;69.90;;;;;;4914129;29;21076;-87
2022/12/23 10:15:45;;;;;;;7.87;6.73;;;14.70;69.80;;;;;;4873913;29;20489;-85
2022/12/23 10:18:20;;;;;;;6.43;5.43;;;14.80;69.90;;;;;;4897856;29;20455;-85
2022/12/23 10:20:52;;;;;;;3.93;3.50;;;14.80;69.80;;;;;;4884842;29;20462;-86
2022/12/23 10:23:28;;;;;;;5.07;4.53;;;14.90;69.50;;;;;;4911107;29;20973;-85
2022/12/23 10:25:55;;;;;;;23.00;15.10;;;15.00;69.10;;;;;;4905005;29;21063;-85
2022/12/23 10:28:23;;;;;;;26.47;15.63;;;15.00;69.10;;;;;;4914483;29;20958;-86
2022/12/23 10:31:01;;;;;;;31.83;19.30;;;15.00;69.20;;;;;;4900201;29;20471;-85
2022/12/23 10:33:37;;;;;;;36.10;23.93;;;15.00;68.90;;;;;;4916587;29;20910;-86
2022/12/23 10:36:10;;;;;;;41.57;24.80;;;15.10;68.70;;;;;;4878742;29;20545;-86
2022/12/23 10:38:47;;;;;;;40.50;23.80;;;15.10;68.90;;;;;;4899971;29;20963;-85
2022/12/23 10:41:22;;;;;;;30.50;17.50;;;15.20;68.80;;;;;;4870942;29;20461;-86
2022/12/23 10:44:17;;;;;;;27.03;17.80;;;15.10;69.00;;;;;;4880884;29;20460;-85
2022/12/23 10:46:53;;;;;;;37.27;27.27;;;15.10;69.10;;;;;;4923068;29;20931;-85
2022/12/23 10:49:30;;;;;;;31.63;24.90;;;15.10;68.70;;;;;;4931059;29;20720;-85
2022/12/23 10:52:00;;;;;;;23.73;21.07;;;15.20;68.50;;;;;;4899831;29;20928;-87
2022/12/23 10:54:32;;;;;;;23.73;19.03;;;15.30;68.40;;;;;;4929794;28;20518;-85
2022/12/23 10:57:00;;;;;;;23.40;13.50;;;15.30;68.20;;;;;;4923024;29;20713;-85
2022/12/23 10:59:29;;;;;;;5.10;3.90;;;15.40;68.30;;;;;;4898280;29;20455;-83
2022/12/23 11:02:04;;;;;;;3.80;3.00;;;15.30;68.30;;;;;;4908174;29;20549;-85
2022/12/23 11:04:36;;;;;;;2.20;2.00;;;15.30;68.50;;;;;;4916951;29;20474;-85
2022/12/23 11:07:03;;;;;;;19.43;14.20;;;15.30;68.40;;;;;;4899681;29;20462;-84
2022/12/23 11:09:38;;;;;;;6.40;5.03;;;15.30;68.40;;;;;;4918316;29;20471;-86
2022/12/23 11:12:07;;;;;;;2.70;2.50;;;15.30;68.70;;;;;;4914917;29;20522;-86
2022/12/23 11:14:38;;;;;;;2.23;2.07;;;15.40;68.60;;;;;;4907471;29;21459;-84
2022/12/23 11:17:20;;;;;;;2.20;1.90;;;15.40;68.50;;;;;;4893161;29;20499;-86
2022/12/23 11:19:47;;;;;;;2.60;2.40;;;15.40;68.50;;;;;;4915935;29;20467;-84
2022/12/23 11:22:23;;;;;;;2.30;2.10;;;15.40;68.60;;;;;;4891716;29;20464;-85
2022/12/23 11:24:51;;;;;;;3.13;1.90;;;15.20;68.70;;;;;;4907423;29;20554;-85
2022/12/23 11:27:19;;;;;;;4.27;2.50;;;15.10;69.40;;;;;;4874067;29;20833;-87
2022/12/23 11:29:51;;;;;;;2.23;2.03;;;14.90;70.40;;;;;;4885621;29;20549;-85
2022/12/23 11:32:24;;;;;;;3.13;2.27;;;14.80;70.60;;;;;;4909302;29;20444;-86
2022/12/23 11:34:53;;;;;;;2.10;2.00;;;14.90;70.30;;;;;;4931531;28;21235;-85
2022/12/23 11:37:35;;;;;;;2.03;1.80;;;14.90;70.80;;;;;;4910680;29;20469;-86
2022/12/23 11:40:04;;;;;;;2.30;1.80;;;14.80;71.10;;;;;;4924412;29;20466;-85
2022/12/23 11:42:33;;;;;;;3.23;2.90;;;14.60;71.70;;;;;;4892668;29;20510;-85
2022/12/23 11:45:01;;;;;;;2.70;2.50;;;14.80;71.60;;;;;;4918377;29;20558;-84
2022/12/23 11:47:35;;;;;;;2.40;2.20;;;14.80;71.50;;;;;;4873246;29;20526;-86
2022/12/23 11:50:25;;;;;;;2.67;1.90;;;14.80;71.70;;;;;;4893403;29;20514;-85
2022/12/23 11:52:55;;;;;;;2.27;2.00;;;14.90;71.10;;;;;;4902672;29;20461;-85
2022/12/23 11:55:25;;;;;;;3.10;2.03;;;14.80;71.80;;;;;;4915710;29;20851;-85
2022/12/23 11:57:52;;;;;;;3.57;1.90;;;14.90;71.50;;;;;;4913562;29;20448;-84
2022/12/23 12:00:23;;;;;;;5.77;4.20;;;15.00;70.80;;;;;;4888918;29;20479;-85
2022/12/23 12:02:53;;;;;;;2.60;2.40;;;15.00;70.80;;;;;;4908544;29;20458;-86
2022/12/23 12:05:24;;;;;;;2.37;2.17;;;15.20;70.50;;;;;;4916835;29;20475;-83
2022/12/23 12:07:52;;;;;;;2.33;2.00;;;15.00;70.50;;;;;;4930855;28;20463;-85
2022/12/23 12:10:22;;;;;;;2.30;2.10;;;15.00;70.60;;;;;;4888280;29;20475;-86
2022/12/23 12:12:51;;;;;;;2.27;2.10;;;15.10;70.40;;;;;;4918561;29;20483;-85
2022/12/23 12:15:29;;;;;;;2.23;2.10;;;15.20;70.00;;;;;;4919854;29;20471;-86
2022/12/23 12:17:58;;;;;;;2.90;2.07;;;15.20;70.00;;;;;;4901575;29;20459;-85
2022/12/23 12:20:34;;;;;;;2.30;2.10;;;15.20;69.90;;;;;;4907998;29;20471;-85
2022/12/23 12:23:06;;;;;;;2.40;2.20;;;15.10;70.10;;;;;;4924029;29;20453;-85
2022/12/23 12:25:40;;;;;;;2.73;1.83;;;15.00;70.40;;;;;;4903774;29;20499;-85
2022/12/23 12:28:12;;;;;;;1.90;1.80;;;15.00;70.40;;;;;;4923315;29;20479;-86
2022/12/23 12:30:50;;;;;;;5.47;3.73;;;15.00;70.30;;;;;;4885266;29;20468;-85
2022/12/23 12:33:23;;;;;;;3.43;3.10;;;15.10;70.00;;;;;;4906525;29;20482;-86
2022/12/23 12:35:57;;;;;;;7.80;2.47;;;15.20;69.80;;;;;;4901098;29;21882;-85
2022/12/23 12:38:27;;;;;;;9.40;5.80;;;15.00;70.20;;;;;;4931991;28;20455;-84
2022/12/23 12:40:58;;;;;;;22.40;15.57;;;14.80;70.80;;;;;;4900309;29;20479;-85
2022/12/23 12:43:30;;;;;;;4.20;3.90;;;14.60;72.50;;;;;;4902793;29;20456;-86
2022/12/23 12:46:11;;;;;;;4.03;3.33;;;15.00;71.40;;;;;;4914189;29;20474;-85
2022/12/23 12:48:48;;;;;;;4.67;3.50;;;15.20;70.50;;;;;;4882398;29;20451;-85
2022/12/23 12:51:24;;;;;;;11.63;7.50;;;15.40;69.90;;;;;;4901215;29;20526;-86
2022/12/23 12:54:00;;;;;;;17.13;10.97;;;15.50;69.40;;;;;;4929581;29;20476;-86
2022/12/23 12:56:33;;;;;;;12.30;8.47;;;15.60;69.10;;;;;;4907772;29;20457;-84
2022/12/23 12:59:00;;;;;;;12.43;7.80;;;15.60;68.90;;;;;;4927506;29;20443;-86
2022/12/23 13:01:42;;;;;;;19.67;10.73;;;15.50;69.40;;;;;;4888209;29;20448;-85
2022/12/23 13:04:40;;;;;;;20.50;11.70;;;15.50;69.50;;;;;;4903316;29;20458;-85
2022/12/23 13:07:19;;;;;;;25.53;12.20;;;15.50;69.40;;;;;;4899021;29;20488;-84
2022/12/23 13:09:56;;;;;;;12.53;7.30;;;15.50;69.20;;;;;;4904340;29;20466;-83
2022/12/23 13:12:34;;;;;;;12.90;8.73;;;15.40;69.60;;;;;;4906809;29;20484;-85
2022/12/23 13:15:09;;;;;;;7.80;6.27;;;15.40;69.70;;;;;;4915877;29;20490;-85
2022/12/23 13:17:42;;;;;;;7.00;6.03;;;15.40;70.00;;;;;;4920372;29;20459;-83
2022/12/23 13:20:19;;;;;;;15.60;9.00;;;15.30;70.10;;;;;;4891112;29;20491;-85
2022/12/23 13:22:54;;;;;;;11.70;7.30;;;15.00;71.30;;;;;;4929962;28;20443;-86
2022/12/23 13:25:27;;;;;;;8.33;6.60;;;14.70;72.90;;;;;;4929842;28;20477;-86
2022/12/23 13:27:57;;;;;;;14.37;7.10;;;14.90;72.50;;;;;;4896692;29;20466;-86